sensor_id;sensor_type;location;lat;lon;timestamp;temperature;humidity
47540;DHT22;33280;52.152;21.052;2023-04-15T00:01:11;10.90;99.90
47540;DHT22;33280;52.152;21.052;2023-04-15T00:03:38;10.90;99.90
47540;DHT22;33280;52.152;21.052;2023-04-15T00:06:06;10.90;99.90
47540;DHT22;33280;52.152;21.052;2023-04-15T00:08:34;10.90;99.90
47540;DHT22;33280;52.152;21.052;2023-04-15T00:11:01;10.90;99.90
47540;DHT22;33280;52.152;21.052;2023-04-15T00:13:31;10.80;99.90
47540;DHT22;33280;52.152;21.052;2023-04-15T00:16:00;10.80;99.90
47540;DHT22;33280;52.152;21.052;2023-04-15T00:18:29;10.70;99.90
47540;DHT22;33280;52.152;21.052;2023-04-15T00:20:57;10.60;99.90
47540;DHT22;33280;52.152;21.052;2023-04-15T00:23:25;10.50;99.90
47540;DHT22;33280;52.152;21.052;2023-04-15T00:25:53;10.40;99.90
47540;DHT22;33280;52.152;21.052;2023-04-15T00:28:20;10.40;99.90
47540;DHT22;33280;52.152;21.052;2023-04-15T00:30:47;10.30;99.90
47540;DHT22;33280;52.152;21.052;2023-04-15T00:33:14;10.20;99.90
47540;DHT22;33280;52.152;21.052;2023-04-15T00:35:42;10.10;99.90
47540;DHT22;33280;52.152;21.052;2023-04-15T00:38:10;10.10;99.90
47540;DHT22;33280;52.152;21.052;2023-04-15T00:40:37;10.10;99.90
47540;DHT22;33280;52.152;21.052;2023-04-15T00:43:04;10.10;99.90
47540;DHT22;33280;52.152;21.052;2023-04-15T00:45:31;10.00;99.90
47540;DHT22;33280;52.152;21.052;2023-04-15T00:48:02;10.00;99.90
47540;DHT22;33280;52.152;21.052;2023-04-15T00:50:32;10.00;99.90
47540;DHT22;33280;52.152;21.052;2023-04-15T00:52:59;10.00;99.90
47540;DHT22;33280;52.152;21.052;2023-04-15T00:55:27;10.00;99.90
47540;DHT22;33280;52.152;21.052;2023-04-15T00:57:56;10.00;99.90
47540;DHT22;33280;52.152;21.052;2023-04-15T01:00:23;10.00;99.90
47540;DHT22;33280;52.152;21.052;2023-04-15T01:02:50;10.00;99.90
47540;DHT22;33280;52.152;21.052;2023-04-15T01:05:17;10.00;99.90
47540;DHT22;33280;52.152;21.052;2023-04-15T01:07:46;10.00;99.90
47540;DHT22;33280;52.152;21.052;2023-04-15T01:10:13;9.90;99.90
47540;DHT22;33280;52.152;21.052;2023-04-15T01:12:40;9.90;99.90
47540;DHT22;33280;52.152;21.052;2023-04-15T01:15:15;9.90;99.90
47540;DHT22;33280;52.152;21.052;2023-04-15T01:17:42;9.80;99.90
47540;DHT22;33280;52.152;21.052;2023-04-15T01:20:09;9.80;99.90
47540;DHT22;33280;52.152;21.052;2023-04-15T01:22:37;9.70;99.90
47540;DHT22;33280;52.152;21.052;2023-04-15T01:25:08;9.70;99.90
47540;DHT22;33280;52.152;21.052;2023-04-15T01:27:38;9.70;99.90
47540;DHT22;33280;52.152;21.052;2023-04-15T01:30:08;9.70;99.90
47540;DHT22;33280;52.152;21.052;2023-04-15T01:32:36;9.70;99.90
47540;DHT22;33280;52.152;21.052;2023-04-15T01:35:03;9.70;99.90
47540;DHT22;33280;52.152;21.052;2023-04-15T01:37:31;9.60;99.90
47540;DHT22;33280;52.152;21.052;2023-04-15T01:39:58;9.60;99.90
47540;DHT22;33280;52.152;21.052;2023-04-15T01:42:25;9.60;99.90
47540;DHT22;33280;52.152;21.052;2023-04-15T01:44:53;9.60;99.90
47540;DHT22;33280;52.152;21.052;2023-04-15T01:47:20;9.60;99.90
47540;DHT22;33280;52.152;21.052;2023-04-15T01:49:47;9.60;99.90
47540;DHT22;33280;52.152;21.052;2023-04-15T01:52:14;9.60;99.90
47540;DHT22;33280;52.152;21.052;2023-04-15T01:54:41;9.60;99.90
47540;DHT22;33280;52.152;21.052;2023-04-15T01:57:08;9.60;99.90
47540;DHT22;33280;52.152;21.052;2023-04-15T01:59:35;9.60;99.90
47540;DHT22;33280;52.152;21.052;2023-04-15T02:02:03;9.60;99.90
47540;DHT22;33280;52.152;21.052;2023-04-15T02:04:30;9.60;99.90
47540;DHT22;33280;52.152;21.052;2023-04-15T02:06:57;9.60;99.90
47540;DHT22;33280;52.152;21.052;2023-04-15T02:09:24;9.50;99.90
47540;DHT22;33280;52.152;21.052;2023-04-15T02:11:51;9.50;99.90
47540;DHT22;33280;52.152;21.052;2023-04-15T02:14:19;9.50;99.90
47540;DHT22;33280;52.152;21.052;2023-04-15T02:16:47;9.50;99.90
47540;DHT22;33280;52.152;21.052;2023-04-15T02:19:14;9.50;99.90
47540;DHT22;33280;52.152;21.052;2023-04-15T02:21:41;9.50;99.90
47540;DHT22;33280;52.152;21.052;2023-04-15T02:24:07;9.50;99.90
47540;DHT22;33280;52.152;21.052;2023-04-15T02:26:34;9.60;99.90
47540;DHT22;33280;52.152;21.052;2023-04-15T02:29:02;9.60;99.90
47540;DHT22;33280;52.152;21.052;2023-04-15T02:31:29;9.60;99.90
47540;DHT22;33280;52.152;21.052;2023-04-15T02:33:56;9.60;99.90
47540;DHT22;33280;52.152;21.052;2023-04-15T02:36:23;9.50;99.90
47540;DHT22;33280;52.152;21.052;2023-04-15T02:38:50;9.50;99.90
47540;DHT22;33280;52.152;21.052;2023-04-15T02:41:18;9.60;99.90
47540;DHT22;33280;52.152;21.052;2023-04-15T02:43:45;9.60;99.90
47540;DHT22;33280;52.152;21.052;2023-04-15T02:46:12;9.50;99.90
47540;DHT22;33280;52.152;21.052;2023-04-15T02:48:40;9.60;99.90
47540;DHT22;33280;52.152;21.052;2023-04-15T02:53:38;9.50;99.90
47540;DHT22;33280;52.152;21.052;2023-04-15T02:56:09;9.50;99.90
47540;DHT22;33280;52.152;21.052;2023-04-15T02:58:42;9.50;99.90
47540;DHT22;33280;52.152;21.052;2023-04-15T03:01:10;9.50;99.90
47540;DHT22;33280;52.152;21.052;2023-04-15T03:03:37;9.50;99.90
47540;DHT22;33280;52.152;21.052;2023-04-15T03:06:06;9.50;99.90
47540;DHT22;33280;52.152;21.052;2023-04-15T03:08:37;9.50;99.90
47540;DHT22;33280;52.152;21.052;2023-04-15T03:11:04;9.50;99.90
47540;DHT22;33280;52.152;21.052;2023-04-15T03:13:31;9.40;99.90
47540;DHT22;33280;52.152;21.052;2023-04-15T03:15:57;9.40;99.90
47540;DHT22;33280;52.152;21.052;2023-04-15T03:18:24;9.50;99.90
47540;DHT22;33280;52.152;21.052;2023-04-15T03:20:51;9.50;99.90
47540;DHT22;33280;52.152;21.052;2023-04-15T03:23:18;9.40;99.90
47540;DHT22;33280;52.152;21.052;2023-04-15T03:25:45;9.40;99.90
47540;DHT22;33280;52.152;21.052;2023-04-15T03:28:12;9.50;99.90
47540;DHT22;33280;52.152;21.052;2023-04-15T03:30:39;9.50;99.90
47540;DHT22;33280;52.152;21.052;2023-04-15T03:33:06;9.50;99.90
47540;DHT22;33280;52.152;21.052;2023-04-15T03:35:34;9.50;99.90
47540;DHT22;33280;52.152;21.052;2023-04-15T03:38:01;9.40;99.90
47540;DHT22;33280;52.152;21.052;2023-04-15T03:40:27;9.50;99.90
47540;DHT22;33280;52.152;21.052;2023-04-15T03:42:54;9.40;99.90
47540;DHT22;33280;52.152;21.052;2023-04-15T03:45:21;9.50;99.90
47540;DHT22;33280;52.152;21.052;2023-04-15T03:47:48;9.50;99.90
47540;DHT22;33280;52.152;21.052;2023-04-15T03:50:15;9.40;99.90
47540;DHT22;33280;52.152;21.052;2023-04-15T03:52:43;9.40;99.90
47540;DHT22;33280;52.152;21.052;2023-04-15T03:55:11;9.50;99.90
47540;DHT22;33280;52.152;21.052;2023-04-15T03:57:37;9.40;99.90
47540;DHT22;33280;52.152;21.052;2023-04-15T04:00:06;9.40;99.90
47540;DHT22;33280;52.152;21.052;2023-04-15T04:02:33;9.50;99.90
47540;DHT22;33280;52.152;21.052;2023-04-15T04:05:00;9.40;99.90
47540;DHT22;33280;52.152;21.052;2023-04-15T04:07:27;9.40;99.90
47540;DHT22;33280;52.152;21.052;2023-04-15T04:09:56;9.40;99.90
47540;DHT22;33280;52.152;21.052;2023-04-15T04:12:23;9.40;99.90
47540;DHT22;33280;52.152;21.052;2023-04-15T04:14:50;9.40;99.90
47540;DHT22;33280;52.152;21.052;2023-04-15T04:17:17;9.40;99.90
47540;DHT22;33280;52.152;21.052;2023-04-15T04:19:44;9.40;99.90
47540;DHT22;33280;52.152;21.052;2023-04-15T04:22:11;9.40;99.90
47540;DHT22;33280;52.152;21.052;2023-04-15T04:24:38;9.50;99.90
47540;DHT22;33280;52.152;21.052;2023-04-15T04:27:05;9.40;99.90
47540;DHT22;33280;52.152;21.052;2023-04-15T04:29:32;9.50;99.90
47540;DHT22;33280;52.152;21.052;2023-04-15T04:31:58;9.40;99.90
47540;DHT22;33280;52.152;21.052;2023-04-15T04:34:26;9.50;99.90
47540;DHT22;33280;52.152;21.052;2023-04-15T04:36:52;9.50;99.90
47540;DHT22;33280;52.152;21.052;2023-04-15T04:39:19;9.40;99.90
47540;DHT22;33280;52.152;21.052;2023-04-15T04:41:46;9.40;99.90
47540;DHT22;33280;52.152;21.052;2023-04-15T04:44:16;9.30;99.90
47540;DHT22;33280;52.152;21.052;2023-04-15T04:46:43;9.40;99.90
47540;DHT22;33280;52.152;21.052;2023-04-15T04:49:10;9.40;99.90
47540;DHT22;33280;52.152;21.052;2023-04-15T04:51:37;9.30;99.90
47540;DHT22;33280;52.152;21.052;2023-04-15T04:54:04;9.30;99.90
47540;DHT22;33280;52.152;21.052;2023-04-15T04:56:32;9.40;99.90
47540;DHT22;33280;52.152;21.052;2023-04-15T04:59:00;9.30;99.90
47540;DHT22;33280;52.152;21.052;2023-04-15T05:01:27;9.30;99.90
47540;DHT22;33280;52.152;21.052;2023-04-15T05:03:54;9.40;99.90
47540;DHT22;33280;52.152;21.052;2023-04-15T05:06:22;9.40;99.90
47540;DHT22;33280;52.152;21.052;2023-04-15T05:08:49;9.40;99.90
47540;DHT22;33280;52.152;21.052;2023-04-15T05:11:16;9.40;99.90
47540;DHT22;33280;52.152;21.052;2023-04-15T05:13:50;9.40;99.90
47540;DHT22;33280;52.152;21.052;2023-04-15T05:16:17;9.40;99.90
47540;DHT22;33280;52.152;21.052;2023-04-15T05:18:45;9.40;99.90
47540;DHT22;33280;52.152;21.052;2023-04-15T05:21:12;9.50;99.90
47540;DHT22;33280;52.152;21.052;2023-04-15T05:23:39;9.50;99.90
47540;DHT22;33280;52.152;21.052;2023-04-15T05:26:06;9.40;99.90
47540;DHT22;33280;52.152;21.052;2023-04-15T05:28:47;9.40;99.90
47540;DHT22;33280;52.152;21.052;2023-04-15T05:31:20;9.50;99.90
47540;DHT22;33280;52.152;21.052;2023-04-15T05:33:47;9.50;99.90
47540;DHT22;33280;52.152;21.052;2023-04-15T05:36:14;9.50;99.90
47540;DHT22;33280;52.152;21.052;2023-04-15T05:38:41;9.40;99.90
47540;DHT22;33280;52.152;21.052;2023-04-15T05:41:08;9.40;99.90
47540;DHT22;33280;52.152;21.052;2023-04-15T05:43:35;9.50;99.90
47540;DHT22;33280;52.152;21.052;2023-04-15T05:46:02;9.40;99.90
47540;DHT22;33280;52.152;21.052;2023-04-15T05:48:29;9.40;99.90
47540;DHT22;33280;52.152;21.052;2023-04-15T05:50:56;9.40;99.90
47540;DHT22;33280;52.152;21.052;2023-04-15T05:53:23;9.50;99.90
47540;DHT22;33280;52.152;21.052;2023-04-15T05:55:50;9.50;99.90
47540;DHT22;33280;52.152;21.052;2023-04-15T05:58:17;9.50;99.90
47540;DHT22;33280;52.152;21.052;2023-04-15T06:00:44;9.50;99.90
47540;DHT22;33280;52.152;21.052;2023-04-15T06:03:11;9.40;99.90
47540;DHT22;33280;52.152;21.052;2023-04-15T06:05:39;9.40;99.90
47540;DHT22;33280;52.152;21.052;2023-04-15T06:08:06;9.40;99.90
47540;DHT22;33280;52.152;21.052;2023-04-15T06:10:34;9.40;99.90
47540;DHT22;33280;52.152;21.052;2023-04-15T06:13:02;9.30;99.90
47540;DHT22;33280;52.152;21.052;2023-04-15T06:15:29;9.40;99.90
47540;DHT22;33280;52.152;21.052;2023-04-15T06:17:56;9.40;99.90
47540;DHT22;33280;52.152;21.052;2023-04-15T06:20:24;9.40;99.90
47540;DHT22;33280;52.152;21.052;2023-04-15T06:22:51;9.40;99.90
47540;DHT22;33280;52.152;21.052;2023-04-15T06:25:17;9.40;99.90
47540;DHT22;33280;52.152;21.052;2023-04-15T06:27:44;9.50;99.90
47540;DHT22;33280;52.152;21.052;2023-04-15T06:30:11;9.50;99.90
47540;DHT22;33280;52.152;21.052;2023-04-15T06:32:38;9.50;99.90
47540;DHT22;33280;52.152;21.052;2023-04-15T06:35:05;9.40;99.90
47540;DHT22;33280;52.152;21.052;2023-04-15T06:37:32;9.50;99.90
47540;DHT22;33280;52.152;21.052;2023-04-15T06:39:59;9.50;99.90
47540;DHT22;33280;52.152;21.052;2023-04-15T06:42:26;9.50;99.90
47540;DHT22;33280;52.152;21.052;2023-04-15T06:44:53;9.50;99.90
47540;DHT22;33280;52.152;21.052;2023-04-15T06:47:20;9.50;99.90
47540;DHT22;33280;52.152;21.052;2023-04-15T06:49:47;9.50;99.90
47540;DHT22;33280;52.152;21.052;2023-04-15T06:52:14;9.60;99.90
47540;DHT22;33280;52.152;21.052;2023-04-15T06:54:42;9.60;99.90
47540;DHT22;33280;52.152;21.052;2023-04-15T06:57:09;9.60;99.90
47540;DHT22;33280;52.152;21.052;2023-04-15T06:59:39;9.60;99.90
47540;DHT22;33280;52.152;21.052;2023-04-15T07:02:11;9.60;99.90
47540;DHT22;33280;52.152;21.052;2023-04-15T07:04:38;9.60;99.90
47540;DHT22;33280;52.152;21.052;2023-04-15T07:07:06;9.60;99.90
47540;DHT22;33280;52.152;21.052;2023-04-15T07:09:33;9.50;99.90
47540;DHT22;33280;52.152;21.052;2023-04-15T07:12:00;9.60;99.90
47540;DHT22;33280;52.152;21.052;2023-04-15T07:14:27;9.50;99.90
47540;DHT22;33280;52.152;21.052;2023-04-15T07:16:55;9.60;99.90
47540;DHT22;33280;52.152;21.052;2023-04-15T07:19:22;9.50;99.90
47540;DHT22;33280;52.152;21.052;2023-04-15T07:21:49;9.50;99.90
47540;DHT22;33280;52.152;21.052;2023-04-15T07:24:16;9.50;99.90
47540;DHT22;33280;52.152;21.052;2023-04-15T07:26:45;9.50;99.90
47540;DHT22;33280;52.152;21.052;2023-04-15T07:29:12;9.50;99.90
47540;DHT22;33280;52.152;21.052;2023-04-15T07:31:39;9.60;99.90
47540;DHT22;33280;52.152;21.052;2023-04-15T07:34:07;9.60;99.90
47540;DHT22;33280;52.152;21.052;2023-04-15T07:36:34;9.60;99.90
47540;DHT22;33280;52.152;21.052;2023-04-15T07:39:02;9.60;99.90
47540;DHT22;33280;52.152;21.052;2023-04-15T07:41:30;9.60;99.90
47540;DHT22;33280;52.152;21.052;2023-04-15T07:43:57;9.50;99.90
47540;DHT22;33280;52.152;21.052;2023-04-15T07:46:24;9.50;99.90
47540;DHT22;33280;52.152;21.052;2023-04-15T07:48:53;9.50;99.90
47540;DHT22;33280;52.152;21.052;2023-04-15T07:51:20;9.50;99.90
47540;DHT22;33280;52.152;21.052;2023-04-15T07:53:47;9.50;99.90
47540;DHT22;33280;52.152;21.052;2023-04-15T07:56:20;9.50;99.90
47540;DHT22;33280;52.152;21.052;2023-04-15T07:58:47;9.60;99.90
47540;DHT22;33280;52.152;21.052;2023-04-15T08:01:14;9.60;99.90
47540;DHT22;33280;52.152;21.052;2023-04-15T08:03:41;9.60;99.90
47540;DHT22;33280;52.152;21.052;2023-04-15T08:06:09;9.60;99.90
47540;DHT22;33280;52.152;21.052;2023-04-15T08:08:35;9.60;99.90
47540;DHT22;33280;52.152;21.052;2023-04-15T08:11:06;9.60;99.90
47540;DHT22;33280;52.152;21.052;2023-04-15T08:13:34;9.60;99.90
47540;DHT22;33280;52.152;21.052;2023-04-15T08:16:21;9.60;99.90
47540;DHT22;33280;52.152;21.052;2023-04-15T08:18:50;9.60;99.90
47540;DHT22;33280;52.152;21.052;2023-04-15T08:21:18;9.60;99.90
47540;DHT22;33280;52.152;21.052;2023-04-15T08:23:47;9.70;99.90
47540;DHT22;33280;52.152;21.052;2023-04-15T08:26:15;9.60;99.90
47540;DHT22;33280;52.152;21.052;2023-04-15T08:28:44;9.70;99.90
47540;DHT22;33280;52.152;21.052;2023-04-15T08:31:12;9.80;99.90
47540;DHT22;33280;52.152;21.052;2023-04-15T08:33:39;9.80;99.90
47540;DHT22;33280;52.152;21.052;2023-04-15T08:36:06;9.80;99.90
47540;DHT22;33280;52.152;21.052;2023-04-15T08:38:34;9.80;99.90
47540;DHT22;33280;52.152;21.052;2023-04-15T08:41:06;9.80;99.90
47540;DHT22;33280;52.152;21.052;2023-04-15T08:43:34;9.80;99.90
47540;DHT22;33280;52.152;21.052;2023-04-15T08:46:01;9.80;99.90
47540;DHT22;33280;52.152;21.052;2023-04-15T08:48:32;9.80;99.90
47540;DHT22;33280;52.152;21.052;2023-04-15T08:51:00;9.90;99.90
47540;DHT22;33280;52.152;21.052;2023-04-15T08:53:28;9.90;99.90
47540;DHT22;33280;52.152;21.052;2023-04-15T08:55:57;9.90;99.90
47540;DHT22;33280;52.152;21.052;2023-04-15T08:58:25;10.00;99.90
47540;DHT22;33280;52.152;21.052;2023-04-15T09:00:53;10.00;99.90
47540;DHT22;33280;52.152;21.052;2023-04-15T09:03:21;10.00;99.90
47540;DHT22;33280;52.152;21.052;2023-04-15T09:05:49;10.00;99.90
47540;DHT22;33280;52.152;21.052;2023-04-15T09:08:18;10.10;99.90
47540;DHT22;33280;52.152;21.052;2023-04-15T09:10:46;10.10;99.90
47540;DHT22;33280;52.152;21.052;2023-04-15T09:13:12;10.10;99.90
47540;DHT22;33280;52.152;21.052;2023-04-15T09:15:39;10.10;99.90
47540;DHT22;33280;52.152;21.052;2023-04-15T09:18:07;10.10;99.90
47540;DHT22;33280;52.152;21.052;2023-04-15T09:20:41;10.20;99.90
47540;DHT22;33280;52.152;21.052;2023-04-15T09:23:15;10.20;99.90
47540;DHT22;33280;52.152;21.052;2023-04-15T09:25:44;10.20;99.90
47540;DHT22;33280;52.152;21.052;2023-04-15T09:28:11;10.10;99.90
47540;DHT22;33280;52.152;21.052;2023-04-15T09:30:42;10.20;99.90
47540;DHT22;33280;52.152;21.052;2023-04-15T09:33:13;10.20;99.90
47540;DHT22;33280;52.152;21.052;2023-04-15T09:36:03;10.20;99.90
47540;DHT22;33280;52.152;21.052;2023-04-15T09:38:31;10.20;99.90
47540;DHT22;33280;52.152;21.052;2023-04-15T09:40:58;10.20;99.90
47540;DHT22;33280;52.152;21.052;2023-04-15T09:43:38;10.20;99.90
47540;DHT22;33280;52.152;21.052;2023-04-15T09:46:06;10.30;99.90
47540;DHT22;33280;52.152;21.052;2023-04-15T09:48:33;10.30;99.90
47540;DHT22;33280;52.152;21.052;2023-04-15T09:51:11;10.30;99.90
47540;DHT22;33280;52.152;21.052;2023-04-15T09:53:54;10.30;99.90
47540;DHT22;33280;52.152;21.052;2023-04-15T09:56:22;10.30;99.90
47540;DHT22;33280;52.152;21.052;2023-04-15T09:58:55;10.30;99.90
47540;DHT22;33280;52.152;21.052;2023-04-15T10:01:22;10.40;99.90
47540;DHT22;33280;52.152;21.052;2023-04-15T10:03:50;10.40;99.90
47540;DHT22;33280;52.152;21.052;2023-04-15T10:06:17;10.40;99.90
47540;DHT22;33280;52.152;21.052;2023-04-15T10:08:45;10.50;99.90
47540;DHT22;33280;52.152;21.052;2023-04-15T10:11:13;10.50;99.90
47540;DHT22;33280;52.152;21.052;2023-04-15T10:13:40;10.50;99.90
47540;DHT22;33280;52.152;21.052;2023-04-15T10:16:13;10.60;99.90
47540;DHT22;33280;52.152;21.052;2023-04-15T10:18:43;10.60;99.90
47540;DHT22;33280;52.152;21.052;2023-04-15T10:21:10;10.60;99.90
47540;DHT22;33280;52.152;21.052;2023-04-15T10:23:39;10.60;99.90
47540;DHT22;33280;52.152;21.052;2023-04-15T10:26:07;10.60;99.90
47540;DHT22;33280;52.152;21.052;2023-04-15T10:28:35;10.60;99.90
47540;DHT22;33280;52.152;21.052;2023-04-15T10:31:04;10.50;99.90
47540;DHT22;33280;52.152;21.052;2023-04-15T10:33:32;10.60;99.90
47540;DHT22;33280;52.152;21.052;2023-04-15T10:36:00;10.50;99.90
47540;DHT22;33280;52.152;21.052;2023-04-15T10:38:40;10.50;99.90
47540;DHT22;33280;52.152;21.052;2023-04-15T10:41:19;10.50;99.90
47540;DHT22;33280;52.152;21.052;2023-04-15T10:43:48;10.60;99.90
47540;DHT22;33280;52.152;21.052;2023-04-15T10:46:23;10.60;99.90
47540;DHT22;33280;52.152;21.052;2023-04-15T10:48:52;10.70;99.90
47540;DHT22;33280;52.152;21.052;2023-04-15T10:51:30;10.70;99.90
47540;DHT22;33280;52.152;21.052;2023-04-15T10:53:58;10.70;99.90
47540;DHT22;33280;52.152;21.052;2023-04-15T10:56:28;10.80;99.90
47540;DHT22;33280;52.152;21.052;2023-04-15T10:58:57;10.80;99.90
47540;DHT22;33280;52.152;21.052;2023-04-15T11:01:54;10.90;99.90
47540;DHT22;33280;52.152;21.052;2023-04-15T11:04:55;10.80;99.90
47540;DHT22;33280;52.152;21.052;2023-04-15T11:12:56;10.90;99.90
47540;DHT22;33280;52.152;21.052;2023-04-15T11:17:51;11.00;99.90
47540;DHT22;33280;52.152;21.052;2023-04-15T11:20:18;11.00;99.90
47540;DHT22;33280;52.152;21.052;2023-04-15T11:22:50;11.00;99.90
47540;DHT22;33280;52.152;21.052;2023-04-15T11:25:23;11.00;99.90
47540;DHT22;33280;52.152;21.052;2023-04-15T11:27:52;10.90;99.90
47540;DHT22;33280;52.152;21.052;2023-04-15T11:30:25;10.90;99.90
47540;DHT22;33280;52.152;21.052;2023-04-15T11:32:56;11.00;99.90
47540;DHT22;33280;52.152;21.052;2023-04-15T11:35:23;11.10;99.90
47540;DHT22;33280;52.152;21.052;2023-04-15T11:37:50;11.10;99.90
47540;DHT22;33280;52.152;21.052;2023-04-15T11:40:22;11.30;99.90
47540;DHT22;33280;52.152;21.052;2023-04-15T11:45:56;11.50;99.90
47540;DHT22;33280;52.152;21.052;2023-04-15T11:48:28;11.60;99.90
47540;DHT22;33280;52.152;21.052;2023-04-15T11:51:00;11.60;99.90
47540;DHT22;33280;52.152;21.052;2023-04-15T11:56:31;11.50;99.90
47540;DHT22;33280;52.152;21.052;2023-04-15T11:58:58;11.40;99.90
47540;DHT22;33280;52.152;21.052;2023-04-15T12:01:38;11.40;99.90
47540;DHT22;33280;52.152;21.052;2023-04-15T12:04:12;11.40;99.90
47540;DHT22;33280;52.152;21.052;2023-04-15T12:06:46;11.30;99.90
47540;DHT22;33280;52.152;21.052;2023-04-15T12:09:16;11.30;99.90
47540;DHT22;33280;52.152;21.052;2023-04-15T12:11:47;11.30;99.90
47540;DHT22;33280;52.152;21.052;2023-04-15T12:14:18;11.40;99.90
47540;DHT22;33280;52.152;21.052;2023-04-15T12:16:47;11.40;99.90
47540;DHT22;33280;52.152;21.052;2023-04-15T12:19:22;11.30;99.90
47540;DHT22;33280;52.152;21.052;2023-04-15T12:21:50;11.30;99.90
47540;DHT22;33280;52.152;21.052;2023-04-15T12:24:21;11.20;99.90
47540;DHT22;33280;52.152;21.052;2023-04-15T12:26:53;11.30;99.90
47540;DHT22;33280;52.152;21.052;2023-04-15T12:29:27;11.30;99.90
47540;DHT22;33280;52.152;21.052;2023-04-15T12:32:09;11.20;99.90
47540;DHT22;33280;52.152;21.052;2023-04-15T12:34:41;11.30;99.90
47540;DHT22;33280;52.152;21.052;2023-04-15T12:37:11;11.40;99.90
47540;DHT22;33280;52.152;21.052;2023-04-15T12:39:42;11.70;99.90
47540;DHT22;33280;52.152;21.052;2023-04-15T12:42:09;11.90;99.90
47540;DHT22;33280;52.152;21.052;2023-04-15T12:44:38;12.00;99.90
47540;DHT22;33280;52.152;21.052;2023-04-15T12:47:06;12.20;99.90
47540;DHT22;33280;52.152;21.052;2023-04-15T12:49:33;12.20;99.90
47540;DHT22;33280;52.152;21.052;2023-04-15T12:52:01;12.30;99.90
47540;DHT22;33280;52.152;21.052;2023-04-15T12:54:29;12.50;99.90
47540;DHT22;33280;52.152;21.052;2023-04-15T12:56:57;12.50;99.90
47540;DHT22;33280;52.152;21.052;2023-04-15T12:59:24;12.60;99.90
47540;DHT22;33280;52.152;21.052;2023-04-15T13:01:52;12.60;99.90
47540;DHT22;33280;52.152;21.052;2023-04-15T13:04:20;12.70;99.90
47540;DHT22;33280;52.152;21.052;2023-04-15T13:06:48;12.90;99.90
47540;DHT22;33280;52.152;21.052;2023-04-15T13:09:15;12.90;99.90
47540;DHT22;33280;52.152;21.052;2023-04-15T13:11:43;12.90;99.90
47540;DHT22;33280;52.152;21.052;2023-04-15T13:14:10;12.90;99.90
47540;DHT22;33280;52.152;21.052;2023-04-15T13:16:38;12.70;99.90
47540;DHT22;33280;52.152;21.052;2023-04-15T13:19:06;12.60;99.90
47540;DHT22;33280;52.152;21.052;2023-04-15T13:21:33;12.60;99.90
47540;DHT22;33280;52.152;21.052;2023-04-15T13:24:05;12.50;99.90
47540;DHT22;33280;52.152;21.052;2023-04-15T13:26:33;12.50;99.90
47540;DHT22;33280;52.152;21.052;2023-04-15T13:29:00;12.60;99.90
47540;DHT22;33280;52.152;21.052;2023-04-15T13:31:27;12.80;99.90
47540;DHT22;33280;52.152;21.052;2023-04-15T13:33:56;12.90;99.90
47540;DHT22;33280;52.152;21.052;2023-04-15T13:36:23;13.00;99.90
47540;DHT22;33280;52.152;21.052;2023-04-15T13:38:51;13.00;99.90
47540;DHT22;33280;52.152;21.052;2023-04-15T13:41:17;13.10;99.90
47540;DHT22;33280;52.152;21.052;2023-04-15T13:43:47;13.10;99.90
47540;DHT22;33280;52.152;21.052;2023-04-15T13:46:21;12.90;99.90
47540;DHT22;33280;52.152;21.052;2023-04-15T13:49:08;12.80;99.90
47540;DHT22;33280;52.152;21.052;2023-04-15T13:51:35;12.80;99.90
47540;DHT22;33280;52.152;21.052;2023-04-15T13:54:02;12.70;99.90
47540;DHT22;33280;52.152;21.052;2023-04-15T13:56:29;12.70;99.90
47540;DHT22;33280;52.152;21.052;2023-04-15T13:59:01;12.80;99.90
47540;DHT22;33280;52.152;21.052;2023-04-15T14:01:29;12.90;99.90
47540;DHT22;33280;52.152;21.052;2023-04-15T14:03:56;12.90;99.90
47540;DHT22;33280;52.152;21.052;2023-04-15T14:06:24;12.90;99.90
47540;DHT22;33280;52.152;21.052;2023-04-15T14:08:52;13.00;99.90
47540;DHT22;33280;52.152;21.052;2023-04-15T14:11:22;13.00;99.90
47540;DHT22;33280;52.152;21.052;2023-04-15T14:13:49;13.00;99.90
47540;DHT22;33280;52.152;21.052;2023-04-15T14:16:16;12.70;99.90
47540;DHT22;33280;52.152;21.052;2023-04-15T14:18:43;12.50;99.90
47540;DHT22;33280;52.152;21.052;2023-04-15T14:21:11;12.40;99.90
47540;DHT22;33280;52.152;21.052;2023-04-15T14:23:41;12.30;99.90
47540;DHT22;33280;52.152;21.052;2023-04-15T14:26:07;12.30;99.90
47540;DHT22;33280;52.152;21.052;2023-04-15T14:28:34;12.30;99.90
47540;DHT22;33280;52.152;21.052;2023-04-15T14:31:04;12.30;99.90
47540;DHT22;33280;52.152;21.052;2023-04-15T14:33:31;12.40;99.90
47540;DHT22;33280;52.152;21.052;2023-04-15T14:35:58;12.30;99.90
47540;DHT22;33280;52.152;21.052;2023-04-15T14:38:30;12.30;99.90
47540;DHT22;33280;52.152;21.052;2023-04-15T14:41:08;12.50;99.90
47540;DHT22;33280;52.152;21.052;2023-04-15T14:43:38;12.50;99.90
47540;DHT22;33280;52.152;21.052;2023-04-15T14:46:05;12.60;99.90
47540;DHT22;33280;52.152;21.052;2023-04-15T14:48:32;12.70;99.90
47540;DHT22;33280;52.152;21.052;2023-04-15T14:51:00;13.10;99.90
47540;DHT22;33280;52.152;21.052;2023-04-15T14:53:27;13.50;99.90
47540;DHT22;33280;52.152;21.052;2023-04-15T14:55:54;13.70;99.90
47540;DHT22;33280;52.152;21.052;2023-04-15T14:58:23;13.80;99.90
47540;DHT22;33280;52.152;21.052;2023-04-15T15:00:50;13.90;99.90
47540;DHT22;33280;52.152;21.052;2023-04-15T15:03:17;14.00;99.90
47540;DHT22;33280;52.152;21.052;2023-04-15T15:05:45;14.10;99.90
47540;DHT22;33280;52.152;21.052;2023-04-15T15:08:13;13.70;99.90
47540;DHT22;33280;52.152;21.052;2023-04-15T15:10:45;13.60;99.90
47540;DHT22;33280;52.152;21.052;2023-04-15T15:13:15;13.50;99.90
47540;DHT22;33280;52.152;21.052;2023-04-15T15:15:55;13.40;99.90
47540;DHT22;33280;52.152;21.052;2023-04-15T15:18:23;13.30;99.90
47540;DHT22;33280;52.152;21.052;2023-04-15T15:20:51;13.20;99.90
47540;DHT22;33280;52.152;21.052;2023-04-15T15:23:18;13.10;99.90
47540;DHT22;33280;52.152;21.052;2023-04-15T15:25:45;13.20;99.90
47540;DHT22;33280;52.152;21.052;2023-04-15T15:28:13;13.20;99.90
47540;DHT22;33280;52.152;21.052;2023-04-15T15:30:40;13.30;99.90
47540;DHT22;33280;52.152;21.052;2023-04-15T15:33:12;13.40;99.90
47540;DHT22;33280;52.152;21.052;2023-04-15T15:35:39;13.40;99.90
47540;DHT22;33280;52.152;21.052;2023-04-15T15:38:07;13.30;99.90
47540;DHT22;33280;52.152;21.052;2023-04-15T15:40:37;13.10;99.90
47540;DHT22;33280;52.152;21.052;2023-04-15T15:43:05;13.00;99.90
47540;DHT22;33280;52.152;21.052;2023-04-15T15:46:22;12.90;99.90
47540;DHT22;33280;52.152;21.052;2023-04-15T15:48:56;12.80;99.90